createdAt,value
2022-12-07T00:01:21.733Z,14.93
2022-12-07T00:03:51.702Z,19.40
2022-12-07T00:06:20.642Z,19.67
2022-12-07T00:08:50.100Z,18.20
2022-12-07T00:11:21.584Z,14.70
2022-12-07T00:13:53.310Z,12.10
2022-12-07T00:16:23.280Z,15.47
2022-12-07T00:18:51.128Z,14.43
2022-12-07T00:21:21.465Z,16.40
2022-12-07T00:23:50.876Z,19.93
2022-12-07T00:26:22.110Z,16.73
2022-12-07T00:28:50.948Z,18.67
2022-12-07T00:31:21.599Z,18.23
2022-12-07T00:33:49.970Z,17.50
2022-12-07T00:36:24.848Z,16.87
2022-12-07T00:38:55.323Z,17.30
2022-12-07T00:41:26.569Z,21.97
2022-12-07T00:43:55.106Z,21.70
2022-12-07T00:46:23.875Z,23.30
2022-12-07T00:48:52.917Z,23.07
2022-12-07T00:51:23.288Z,22.43
2022-12-07T00:53:51.665Z,20.53
2022-12-07T00:56:21.707Z,18.20
2022-12-07T00:58:54.233Z,18.13
2022-12-07T01:01:22.462Z,19.40
2022-12-07T01:03:50.547Z,19.30
2022-12-07T01:06:19.392Z,19.03
2022-12-07T01:08:47.383Z,19.53
2022-12-07T01:11:17.928Z,18.33
2022-12-07T01:13:46.803Z,20.83
2022-12-07T01:16:18.142Z,20.03
2022-12-07T01:18:49.379Z,20.27
2022-12-07T01:21:19.739Z,20.67
2022-12-07T01:23:47.693Z,21.87
2022-12-07T01:26:17.662Z,19.13
2022-12-07T01:28:46.444Z,16.27
2022-12-07T01:31:17.534Z,18.20
2022-12-07T01:33:47.314Z,17.47
2022-12-07T01:36:17.511Z,18.37
2022-12-07T01:38:46.510Z,21.40
2022-12-07T01:41:14.641Z,20.17
2022-12-07T01:44:12.887Z,15.67
2022-12-07T01:46:43.681Z,17.07
2022-12-07T01:49:14.724Z,21.43
2022-12-07T01:51:45.479Z,21.60
2022-12-07T01:54:14.889Z,17.70
2022-12-07T01:56:44.802Z,16.80
2022-12-07T01:59:12.626Z,20.07
2022-12-07T02:01:40.578Z,19.50
2022-12-07T02:04:10.807Z,20.33
2022-12-07T02:06:39.563Z,16.73
2022-12-07T02:09:07.768Z,18.63
2022-12-07T02:11:35.867Z,15.77
2022-12-07T02:14:04.116Z,23.13
2022-12-07T02:16:40.794Z,19.03
2022-12-07T02:19:45.353Z,18.93
2022-12-07T02:22:31.899Z,20.53
2022-12-07T02:25:10.638Z,16.70
2022-12-07T02:27:49.090Z,16.87
2022-12-07T02:30:21.365Z,14.27
2022-12-07T02:32:56.303Z,22.67
2022-12-07T02:35:31.017Z,17.00
2022-12-07T02:38:10.480Z,18.60
2022-12-07T02:40:43.319Z,22.33
2022-12-07T02:43:16.625Z,20.07
2022-12-07T02:45:47.192Z,19.17
2022-12-07T02:48:18.528Z,18.87
2022-12-07T02:50:47.891Z,17.73
2022-12-07T02:53:36.486Z,17.83
2022-12-07T02:56:12.732Z,18.73
2022-12-07T02:58:52.755Z,23.80
2022-12-07T03:01:34.368Z,20.03
2022-12-07T03:04:19.656Z,20.60
2022-12-07T03:06:53.453Z,20.93
2022-12-07T03:09:27.924Z,19.80
2022-12-07T03:12:03.455Z,19.87
2022-12-07T03:14:34.573Z,19.77
2022-12-07T03:17:10.873Z,19.33
2022-12-07T03:19:39.889Z,20.07
2022-12-07T03:22:10.972Z,19.33
2022-12-07T03:24:44.343Z,22.23
2022-12-07T03:27:18.591Z,20.33
2022-12-07T03:29:51.427Z,19.20
2022-12-07T03:32:26.987Z,17.90
2022-12-07T03:35:00.773Z,19.70
2022-12-07T03:37:35.251Z,23.93
2022-12-07T03:40:09.480Z,20.13
2022-12-07T03:42:37.753Z,18.93
2022-12-07T03:45:07.766Z,18.53
2022-12-07T03:47:45.138Z,17.17
2022-12-07T03:50:18.619Z,21.33
2022-12-07T03:52:55.179Z,21.63
2022-12-07T03:55:28.786Z,20.60
2022-12-07T03:58:01.152Z,18.60
2022-12-07T04:00:29.178Z,21.47
2022-12-07T04:02:58.751Z,17.90
2022-12-07T04:05:27.359Z,18.37
2022-12-07T04:07:55.310Z,17.47
2022-12-07T04:10:23.196Z,19.33
2022-12-07T04:12:51.228Z,19.37
2022-12-07T04:15:19.352Z,18.60
2022-12-07T04:17:47.358Z,21.13
2022-12-07T04:20:16.962Z,17.63
2022-12-07T04:22:45.227Z,17.73
2022-12-07T04:25:13.113Z,20.17
2022-12-07T04:27:41.226Z,22.00
2022-12-07T04:30:10.121Z,18.67
2022-12-07T04:32:38.615Z,23.63
2022-12-07T04:35:07.688Z,20.37
2022-12-07T04:37:40.146Z,20.73
2022-12-07T04:40:11.967Z,17.83
2022-12-07T04:42:39.836Z,20.10
2022-12-07T04:45:09.072Z,18.83
2022-12-07T04:47:36.878Z,23.10
2022-12-07T04:50:05.619Z,16.37
2022-12-07T04:52:33.678Z,22.10
2022-12-07T04:55:02.892Z,19.37
2022-12-07T04:57:30.719Z,20.37
2022-12-07T04:59:58.620Z,19.57
2022-12-07T05:02:26.774Z,17.53
2022-12-07T05:04:57.118Z,17.30
2022-12-07T05:07:24.912Z,17.70
2022-12-07T05:09:52.712Z,17.83
2022-12-07T05:12:21.890Z,16.97
2022-12-07T05:14:49.686Z,18.00
2022-12-07T05:17:17.803Z,20.47
2022-12-07T05:19:45.613Z,21.77
2022-12-07T05:22:14.529Z,15.93
2022-12-07T05:24:42.505Z,16.37
2022-12-07T05:27:10.346Z,19.50
2022-12-07T05:29:39.554Z,17.77
2022-12-07T05:32:07.475Z,19.70
2022-12-07T05:34:35.328Z,21.23
2022-12-07T05:37:03.132Z,18.10
2022-12-07T05:39:30.972Z,19.07
2022-12-07T05:42:15.734Z,17.83
2022-12-07T05:44:46.728Z,19.40
2022-12-07T05:47:16.039Z,17.80
2022-12-07T05:49:43.820Z,20.17
2022-12-07T05:52:11.696Z,17.17
2022-12-07T05:54:39.555Z,20.23
2022-12-07T05:57:07.380Z,19.80
2022-12-07T05:59:34.430Z,15.10
2022-12-07T06:02:06.764Z,20.30
2022-12-07T06:04:37.415Z,24.47
2022-12-07T06:07:06.048Z,17.10
2022-12-07T06:09:35.234Z,16.00
2022-12-07T06:12:20.847Z,18.63
2022-12-07T06:14:48.646Z,14.37
2022-12-07T06:17:18.209Z,13.47
2022-12-07T06:19:46.125Z,19.43
2022-12-07T06:22:14.492Z,16.70
2022-12-07T06:24:42.485Z,14.03
2022-12-07T06:27:10.520Z,15.83
2022-12-07T06:29:38.605Z,16.03
2022-12-07T06:32:07.105Z,17.67
2022-12-07T06:34:36.900Z,12.47
2022-12-07T06:37:04.867Z,16.50
2022-12-07T06:39:33.057Z,16.37
2022-12-07T06:42:01.005Z,12.97
2022-12-07T06:44:28.896Z,18.30
2022-12-07T06:47:18.795Z,24.20
2022-12-07T06:49:46.712Z,21.97
2022-12-07T06:52:14.725Z,15.63
2022-12-07T06:54:42.578Z,18.20
2022-12-07T06:57:10.345Z,14.00
2022-12-07T06:59:38.219Z,14.23
2022-12-07T07:02:06.163Z,18.20
2022-12-07T07:04:34.223Z,13.80
2022-12-07T07:07:03.520Z,17.33
2022-12-07T07:09:31.397Z,18.90
2022-12-07T07:11:59.221Z,15.30
2022-12-07T07:14:27.104Z,13.23
2022-12-07T07:16:55.036Z,15.03
2022-12-07T07:19:23.197Z,14.27
2022-12-07T07:21:51.232Z,19.17
2022-12-07T07:24:20.720Z,16.87
2022-12-07T07:26:48.634Z,19.00
2022-12-07T07:29:16.757Z,17.40
2022-12-07T07:31:44.588Z,19.07
2022-12-07T07:34:12.521Z,21.30
2022-12-07T07:36:40.455Z,18.63
2022-12-07T07:39:08.241Z,20.67
2022-12-07T07:41:37.977Z,17.43
2022-12-07T07:44:06.183Z,12.73
2022-12-07T07:46:34.537Z,18.40
2022-12-07T07:49:02.601Z,17.80
2022-12-07T07:51:30.538Z,16.57
2022-12-07T07:53:58.531Z,14.47
2022-12-07T07:56:26.348Z,15.37
2022-12-07T07:58:55.880Z,18.37
2022-12-07T08:01:23.977Z,21.47
2022-12-07T08:03:52.234Z,17.77
2022-12-07T08:06:20.149Z,21.80
2022-12-07T08:08:47.967Z,13.27
2022-12-07T08:11:15.929Z,19.17
2022-12-07T08:13:43.930Z,15.03
2022-12-07T08:16:13.453Z,17.60
2022-12-07T08:18:43.756Z,16.97
2022-12-07T08:21:14.821Z,20.23
2022-12-07T08:23:43.566Z,25.00
2022-12-07T08:26:14.575Z,23.73
2022-12-07T08:28:42.910Z,23.27
2022-12-07T08:31:15.937Z,25.70
2022-12-07T08:33:44.590Z,22.17
2022-12-07T08:36:16.505Z,23.93
2022-12-07T08:39:01.505Z,23.30
2022-12-07T08:41:32.296Z,25.37
2022-12-07T08:44:00.242Z,23.20
2022-12-07T08:46:37.585Z,12.53
2022-12-07T08:49:08.362Z,24.20
2022-12-07T08:51:36.418Z,15.43
2022-12-07T08:54:08.930Z,21.40
2022-12-07T08:56:37.971Z,18.70
2022-12-07T08:59:07.596Z,13.80
2022-12-07T09:01:36.857Z,15.80
2022-12-07T09:04:04.860Z,16.57
2022-12-07T09:06:32.850Z,16.83
2022-12-07T09:09:02.431Z,17.97
2022-12-07T09:11:30.597Z,12.53
2022-12-07T09:13:58.643Z,16.53
2022-12-07T09:16:26.653Z,16.10
2022-12-07T09:18:55.973Z,11.63
2022-12-07T09:21:23.820Z,13.50
2022-12-07T09:23:51.861Z,15.17
2022-12-07T09:26:19.739Z,14.73
2022-12-07T09:28:47.690Z,12.80
2022-12-07T09:31:24.701Z,15.80
2022-12-07T09:33:57.961Z,10.80
2022-12-07T09:36:26.206Z,11.97
2022-12-07T09:38:54.649Z,15.70
2022-12-07T09:41:24.819Z,18.90
2022-12-07T09:43:54.736Z,10.80
2022-12-07T09:46:23.292Z,16.90
2022-12-07T09:48:52.837Z,19.77
2022-12-07T09:51:25.413Z,12.80
2022-12-07T09:53:55.575Z,10.00
2022-12-07T09:56:25.058Z,13.60
2022-12-07T09:58:57.744Z,12.93
2022-12-07T10:01:25.843Z,13.30
2022-12-07T10:03:57.059Z,11.87
2022-12-07T10:06:26.406Z,15.30
2022-12-07T10:08:54.270Z,15.57
2022-12-07T10:11:22.211Z,9.07
2022-12-07T10:13:55.195Z,14.03
2022-12-07T10:16:40.564Z,16.33
2022-12-07T10:19:25.103Z,11.33
2022-12-07T10:22:13.041Z,14.27
2022-12-07T10:24:43.958Z,11.93
2022-12-07T10:27:22.177Z,10.20
2022-12-07T10:29:52.248Z,11.77
2022-12-07T10:32:35.097Z,13.43
2022-12-07T10:35:25.034Z,7.77
2022-12-07T10:37:55.854Z,8.83
2022-12-07T10:40:34.219Z,12.60
2022-12-07T10:43:21.013Z,9.77
2022-12-07T10:46:24.936Z,10.37
2022-12-07T10:49:05.408Z,11.33
2022-12-07T10:51:47.449Z,9.90
2022-12-07T10:54:28.376Z,9.97
2022-12-07T10:57:18.553Z,9.13
2022-12-07T11:00:11.593Z,9.10
2022-12-07T11:02:59.532Z,9.17
2022-12-07T11:05:31.630Z,7.27
2022-12-07T11:08:07.924Z,12.73
2022-12-07T11:10:47.965Z,9.57
2022-12-07T11:13:28.752Z,9.27
2022-12-07T11:16:19.228Z,7.47
2022-12-07T11:19:00.139Z,10.13
2022-12-07T11:21:38.634Z,5.97
2022-12-07T11:24:12.923Z,15.77
2022-12-07T11:27:09.114Z,14.47
2022-12-07T11:30:22.020Z,11.23
2022-12-07T11:32:59.684Z,8.07
2022-12-07T11:35:42.679Z,7.70
2022-12-07T11:38:14.673Z,12.93
2022-12-07T11:40:45.400Z,7.03
2022-12-07T11:43:22.453Z,11.50
2022-12-07T11:45:56.546Z,7.67
2022-12-07T11:48:31.263Z,9.87
2022-12-07T11:51:01.469Z,7.43
2022-12-07T11:53:35.716Z,10.40
2022-12-07T11:56:10.647Z,7.67
2022-12-07T11:58:49.621Z,10.70
2022-12-07T12:01:42.836Z,7.40
2022-12-07T12:04:24.258Z,10.50
2022-12-07T12:06:52.846Z,8.53
2022-12-07T12:09:46.682Z,14.10
2022-12-07T12:15:42.365Z,7.43
2022-12-07T12:18:48.685Z,6.63
2022-12-07T12:21:20.313Z,17.17
2022-12-07T12:23:53.006Z,14.60
2022-12-07T12:26:23.497Z,8.90
2022-12-07T12:28:56.735Z,9.23
2022-12-07T12:31:38.145Z,11.83
2022-12-07T12:34:22.267Z,14.60
2022-12-07T12:36:50.669Z,9.17
2022-12-07T12:39:20.152Z,16.50
2022-12-07T12:42:15.690Z,11.53
2022-12-07T12:45:21.481Z,9.07
2022-12-07T12:48:29.452Z,11.10
2022-12-07T12:51:30.726Z,7.00
2022-12-07T12:54:05.950Z,9.93
2022-12-07T12:56:45.337Z,7.97
2022-12-07T12:59:34.711Z,10.50
2022-12-07T13:02:24.094Z,11.57
2022-12-07T13:04:56.816Z,7.27
2022-12-07T13:07:52.485Z,9.83
2022-12-07T13:10:50.875Z,12.83
2022-12-07T13:13:36.249Z,7.10
2022-12-07T13:16:44.015Z,10.73
2022-12-07T13:20:02.302Z,5.90
2022-12-07T13:22:56.548Z,7.03
2022-12-07T13:25:32.591Z,9.83
2022-12-07T13:28:04.678Z,11.17
2022-12-07T13:30:33.944Z,7.57
2022-12-07T13:33:02.369Z,11.27
2022-12-07T13:35:33.357Z,6.20
2022-12-07T13:38:05.941Z,9.37
2022-12-07T13:40:33.847Z,7.27
2022-12-07T13:43:03.554Z,6.00
2022-12-07T13:45:51.384Z,9.23
2022-12-07T13:48:25.729Z,9.33
2022-12-07T13:50:57.427Z,10.93
2022-12-07T13:53:29.142Z,12.13
2022-12-07T13:55:57.346Z,7.73
2022-12-07T13:58:26.326Z,6.10
2022-12-07T14:00:54.934Z,10.47
2022-12-07T14:03:34.567Z,9.60
2022-12-07T14:06:09.661Z,6.13
2022-12-07T14:08:38.964Z,11.90
2022-12-07T14:11:07.071Z,6.70
2022-12-07T14:13:37.443Z,7.77
2022-12-07T14:16:19.842Z,7.77
2022-12-07T14:18:47.792Z,4.93
2022-12-07T14:21:19.111Z,9.00
2022-12-07T14:24:09.785Z,9.40
2022-12-07T14:26:38.208Z,6.97
2022-12-07T14:29:31.607Z,7.87
2022-12-07T14:32:00.887Z,7.47
2022-12-07T14:34:28.717Z,8.33
2022-12-07T14:36:56.916Z,8.10
2022-12-07T14:39:26.294Z,11.60
2022-12-07T14:41:54.345Z,7.07
2022-12-07T14:44:26.892Z,16.13
2022-12-07T14:49:45.425Z,13.60
2022-12-07T14:55:15.627Z,7.90
2022-12-07T14:57:43.683Z,6.03
2022-12-07T15:00:16.929Z,8.90
2022-12-07T15:02:45.117Z,10.80
2022-12-07T15:05:16.392Z,7.87
2022-12-07T15:07:45.481Z,6.07
2022-12-07T15:10:23.842Z,6.70
2022-12-07T15:12:52.447Z,4.80
2022-12-07T15:15:20.509Z,8.40
2022-12-07T15:17:48.909Z,5.87
2022-12-07T15:20:18.683Z,7.87
2022-12-07T15:22:46.588Z,6.50
2022-12-07T15:25:17.262Z,6.53
2022-12-07T15:27:45.324Z,9.47
2022-12-07T15:30:13.512Z,4.23
2022-12-07T15:32:41.456Z,11.73
2022-12-07T15:35:10.498Z,8.07
2022-12-07T15:37:38.494Z,6.30
2022-12-07T15:40:08.420Z,9.37
2022-12-07T15:42:38.255Z,11.77
2022-12-07T15:45:07.545Z,12.07
2022-12-07T15:47:55.227Z,9.87
2022-12-07T15:50:26.190Z,10.03
2022-12-07T15:52:54.087Z,6.83
2022-12-07T15:55:22.010Z,9.57
2022-12-07T15:57:51.531Z,6.83
2022-12-07T16:00:20.860Z,7.00
2022-12-07T16:02:48.846Z,9.17
2022-12-07T16:05:17.117Z,6.40
2022-12-07T16:07:47.576Z,8.80
2022-12-07T16:10:15.785Z,9.47
2022-12-07T16:12:43.653Z,7.27
2022-12-07T16:15:13.635Z,7.67
2022-12-07T16:17:41.581Z,9.23
2022-12-07T16:20:10.671Z,17.60
2022-12-07T16:22:38.960Z,9.50
2022-12-07T16:25:07.443Z,7.47
2022-12-07T16:27:36.130Z,40.77
2022-12-07T16:30:04.297Z,7.33
2022-12-07T16:32:33.731Z,10.10
2022-12-07T16:35:02.215Z,10.77
2022-12-07T16:37:30.341Z,9.83
2022-12-07T16:39:58.169Z,8.83
2022-12-07T16:42:26.248Z,8.53
2022-12-07T16:44:54.131Z,4.80
2022-12-07T16:47:22.130Z,9.40
2022-12-07T16:49:51.980Z,9.53
2022-12-07T16:52:21.310Z,9.07
2022-12-07T16:54:50.129Z,9.70
2022-12-07T16:57:22.966Z,5.90
2022-12-07T16:59:52.022Z,9.87
2022-12-07T17:02:20.493Z,9.60
2022-12-07T17:04:48.360Z,8.93
2022-12-07T17:07:17.724Z,8.10
2022-12-07T17:09:45.663Z,9.00
2022-12-07T17:12:13.516Z,10.67
2022-12-07T17:14:59.179Z,5.23
2022-12-07T17:17:27.347Z,7.87
2022-12-07T17:19:55.220Z,8.33
2022-12-07T17:22:24.621Z,16.37
2022-12-07T17:24:52.463Z,7.97
2022-12-07T17:27:20.539Z,8.43
2022-12-07T17:29:48.495Z,8.80
2022-12-07T17:32:16.680Z,4.93
2022-12-07T17:34:44.828Z,9.90
2022-12-07T17:37:12.686Z,6.50
2022-12-07T17:39:42.183Z,8.03
2022-12-07T17:42:27.766Z,10.47
2022-12-07T17:44:55.719Z,6.97
2022-12-07T17:47:23.611Z,11.57
2022-12-07T17:49:51.702Z,6.00
2022-12-07T17:52:36.706Z,4.87
2022-12-07T17:55:07.063Z,7.40
2022-12-07T17:57:35.146Z,6.20
2022-12-07T18:00:03.221Z,7.60
2022-12-07T18:02:31.245Z,8.67
2022-12-07T18:04:59.306Z,8.00
2022-12-07T18:07:27.241Z,4.60
2022-12-07T18:09:55.216Z,8.87
2022-12-07T18:12:24.640Z,9.43
2022-12-07T18:14:54.269Z,7.17
2022-12-07T18:17:22.179Z,11.20
2022-12-07T18:19:50.130Z,6.47
2022-12-07T18:22:18.071Z,6.07
2022-12-07T18:24:46.049Z,7.00
2022-12-07T18:27:14.085Z,5.80
2022-12-07T18:29:43.936Z,10.70
2022-12-07T18:32:11.891Z,6.07
2022-12-07T18:34:41.355Z,9.83
2022-12-07T18:37:09.300Z,11.43
2022-12-07T18:39:37.504Z,10.50
2022-12-07T18:42:05.670Z,8.23
2022-12-07T18:44:33.543Z,12.87
2022-12-07T18:47:02.976Z,8.67
2022-12-07T18:49:31.699Z,9.33
2022-12-07T18:51:59.515Z,8.60
2022-12-07T18:54:27.417Z,9.87
2022-12-07T18:56:55.670Z,9.10
2022-12-07T18:59:41.534Z,7.07
2022-12-07T19:02:12.323Z,9.60
2022-12-07T19:04:43.999Z,10.73
2022-12-07T19:07:12.208Z,10.53
2022-12-07T19:09:40.093Z,10.77
2022-12-07T19:12:08.712Z,11.20
2022-12-07T19:14:38.823Z,13.23
2022-12-07T19:17:08.899Z,11.90
2022-12-07T19:19:41.061Z,9.50
2022-12-07T19:22:10.233Z,11.10
2022-12-07T19:24:38.319Z,13.00
2022-12-07T19:27:06.930Z,12.47
2022-12-07T19:29:35.735Z,12.00
2022-12-07T19:32:05.104Z,11.63
2022-12-07T19:34:33.178Z,8.57
2022-12-07T19:37:02.620Z,10.10
2022-12-07T19:39:31.122Z,8.30
2022-12-07T19:41:59.846Z,12.73
2022-12-07T19:44:30.087Z,8.00
2022-12-07T19:47:04.576Z,10.00
2022-12-07T19:49:34.416Z,11.77
2022-12-07T19:52:05.779Z,9.47
2022-12-07T19:54:34.455Z,10.40
2022-12-07T19:57:04.523Z,9.80
2022-12-07T19:59:33.860Z,13.17
2022-12-07T20:02:02.178Z,12.70
2022-12-07T20:04:32.704Z,12.30
2022-12-07T20:07:03.330Z,12.93
2022-12-07T20:09:32.378Z,13.57
2022-12-07T20:12:18.123Z,18.50
2022-12-07T20:14:45.978Z,11.80
2022-12-07T20:17:14.261Z,13.80
2022-12-07T20:19:42.262Z,15.23
2022-12-07T20:22:11.986Z,14.13
2022-12-07T20:24:40.261Z,17.33
2022-12-07T20:27:10.952Z,14.70
2022-12-07T20:29:40.310Z,16.93
2022-12-07T20:32:09.868Z,14.50
2022-12-07T20:34:40.243Z,16.57
2022-12-07T20:37:09.449Z,18.83
2022-12-07T20:39:40.436Z,12.07
2022-12-07T20:42:25.903Z,15.63
2022-12-07T20:44:57.014Z,15.70
2022-12-07T20:47:27.770Z,11.17
2022-12-07T20:49:55.696Z,24.70
2022-12-07T20:52:23.817Z,20.00
2022-12-07T20:54:53.219Z,17.20
2022-12-07T20:57:21.123Z,14.50
2022-12-07T20:59:49.109Z,14.13
2022-12-07T21:02:17.221Z,17.10
2022-12-07T21:04:45.569Z,15.50
2022-12-07T21:07:13.482Z,18.37
2022-12-07T21:09:41.390Z,19.43
2022-12-07T21:12:11.612Z,15.13
2022-12-07T21:14:41.521Z,18.73
2022-12-07T21:17:09.740Z,19.27
2022-12-07T21:19:38.334Z,15.50
2022-12-07T21:22:06.407Z,17.37
2022-12-07T21:24:34.278Z,14.13
2022-12-07T21:27:02.130Z,15.03
2022-12-07T21:29:43.159Z,14.50
2022-12-07T21:32:12.072Z,18.77
2022-12-07T21:34:40.027Z,13.40
2022-12-07T21:37:08.138Z,21.20
2022-12-07T21:39:36.084Z,18.03
2022-12-07T21:42:05.089Z,16.07
2022-12-07T21:44:34.835Z,15.87
2022-12-07T21:47:03.177Z,18.90
2022-12-07T21:49:31.156Z,15.23
2022-12-07T21:51:59.032Z,16.63
2022-12-07T21:54:27.215Z,19.43
2022-12-07T21:56:55.068Z,18.10
2022-12-07T21:59:23.010Z,14.33
2022-12-07T22:01:52.988Z,16.87
2022-12-07T22:04:23.286Z,15.17
2022-12-07T22:06:52.733Z,16.57
2022-12-07T22:09:23.329Z,16.47
2022-12-07T22:11:52.026Z,14.00
2022-12-07T22:14:37.565Z,14.13
2022-12-07T22:17:06.874Z,19.50
2022-12-07T22:19:35.138Z,12.30
2022-12-07T22:22:03.368Z,15.20
2022-12-07T22:24:31.405Z,10.73
2022-12-07T22:26:59.253Z,13.33
2022-12-07T22:29:27.179Z,15.90
2022-12-07T22:31:55.173Z,12.80
2022-12-07T22:34:24.431Z,15.60
2022-12-07T22:36:52.493Z,16.53
2022-12-07T22:39:20.721Z,14.77
2022-12-07T22:41:48.608Z,15.30
2022-12-07T22:44:16.453Z,12.63
2022-12-07T22:46:44.400Z,13.57
2022-12-07T22:49:14.076Z,10.87
2022-12-07T22:51:44.725Z,14.13
2022-12-07T22:54:16.673Z,14.73
2022-12-07T22:56:45.381Z,11.33
2022-12-07T22:59:14.959Z,14.50
2022-12-07T23:01:42.918Z,18.63
2022-12-07T23:04:10.931Z,14.27
2022-12-07T23:06:38.925Z,15.13
2022-12-07T23:09:11.371Z,17.97
2022-12-07T23:11:59.334Z,19.30
2022-12-07T23:14:30.324Z,22.90
2022-12-07T23:16:58.477Z,22.80
2022-12-07T23:19:27.230Z,24.27
2022-12-07T23:21:55.157Z,18.67
2022-12-07T23:24:24.877Z,20.27
2022-12-07T23:26:52.781Z,21.30
2022-12-07T23:29:20.803Z,22.93
2022-12-07T23:31:49.914Z,20.73
2022-12-07T23:34:18.154Z,16.57
2022-12-07T23:36:46.023Z,17.63
2022-12-07T23:39:14.040Z,22.17
2022-12-07T23:41:43.466Z,20.17
2022-12-07T23:44:12.367Z,21.10
2022-12-07T23:46:40.513Z,22.60
2022-12-07T23:49:09.023Z,23.70
2022-12-07T23:51:36.902Z,22.70
2022-12-07T23:54:05.676Z,18.83
2022-12-07T23:56:34.960Z,24.80
2022-12-07T23:59:05.322Z,22.50
